sensor_id;sensor_type;location;lat;lon;timestamp;P1;durP1;ratioP1;P2;durP2;ratioP2
14241;SDS011;7205;50.864;12.766;2024-03-23T00:54:46;6.10;;;5.53;;
14241;SDS011;7205;50.864;12.766;2024-03-23T00:57:12;6.60;;;5.03;;
14241;SDS011;7205;50.864;12.766;2024-03-23T00:59:38;5.93;;;5.37;;
14241;SDS011;7205;50.864;12.766;2024-03-23T01:02:04;6.23;;;5.63;;
14241;SDS011;7205;50.864;12.766;2024-03-23T01:04:31;6.10;;;5.53;;
14241;SDS011;7205;50.864;12.766;2024-03-23T01:06:57;5.90;;;5.40;;
14241;SDS011;7205;50.864;12.766;2024-03-23T01:09:24;6.37;;;5.83;;
14241;SDS011;7205;50.864;12.766;2024-03-23T01:11:50;5.77;;;5.27;;
14241;SDS011;7205;50.864;12.766;2024-03-23T01:14:16;6.23;;;5.70;;
14241;SDS011;7205;50.864;12.766;2024-03-23T01:16:42;6.73;;;6.13;;
14241;SDS011;7205;50.864;12.766;2024-03-23T01:19:08;5.83;;;5.20;;
14241;SDS011;7205;50.864;12.766;2024-03-23T01:21:34;5.67;;;5.03;;
14241;SDS011;7205;50.864;12.766;2024-03-23T01:24:02;7.27;;;5.73;;
14241;SDS011;7205;50.864;12.766;2024-03-23T01:26:28;6.13;;;5.63;;
14241;SDS011;7205;50.864;12.766;2024-03-23T01:28:54;6.30;;;5.70;;
14241;SDS011;7205;50.864;12.766;2024-03-23T01:31:20;5.60;;;5.10;;
14241;SDS011;7205;50.864;12.766;2024-03-23T01:33:47;6.33;;;5.60;;
14241;SDS011;7205;50.864;12.766;2024-03-23T01:36:12;6.10;;;5.60;;
14241;SDS011;7205;50.864;12.766;2024-03-23T01:38:39;5.90;;;5.23;;
14241;SDS011;7205;50.864;12.766;2024-03-23T01:41:06;6.33;;;5.73;;
14241;SDS011;7205;50.864;12.766;2024-03-23T01:43:32;6.80;;;6.20;;
14241;SDS011;7205;50.864;12.766;2024-03-23T01:45:58;6.87;;;5.90;;
14241;SDS011;7205;50.864;12.766;2024-03-23T01:48:25;7.27;;;6.50;;
14241;SDS011;7205;50.864;12.766;2024-03-23T01:50:50;10.37;;;6.40;;
14241;SDS011;7205;50.864;12.766;2024-03-23T01:53:17;7.63;;;6.83;;
14241;SDS011;7205;50.864;12.766;2024-03-23T01:55:44;10.00;;;7.93;;
14241;SDS011;7205;50.864;12.766;2024-03-23T01:58:12;11.60;;;8.60;;
14241;SDS011;7205;50.864;12.766;2024-03-23T02:00:38;10.53;;;9.43;;
14241;SDS011;7205;50.864;12.766;2024-03-23T02:05:49;12.00;;;10.27;;
14241;SDS011;7205;50.864;12.766;2024-03-23T02:08:16;17.60;;;12.37;;
14241;SDS011;7205;50.864;12.766;2024-03-23T02:10:43;19.87;;;15.73;;
14241;SDS011;7205;50.864;12.766;2024-03-23T02:13:09;27.40;;;18.60;;
14241;SDS011;7205;50.864;12.766;2024-03-23T02:15:36;24.57;;;19.30;;
14241;SDS011;7205;50.864;12.766;2024-03-23T02:18:06;31.00;;;20.50;;
14241;SDS011;7205;50.864;12.766;2024-03-23T02:20:32;25.77;;;20.33;;
14241;SDS011;7205;50.864;12.766;2024-03-23T02:23:00;33.63;;;21.90;;
14241;SDS011;7205;50.864;12.766;2024-03-23T02:25:26;28.73;;;20.90;;
14241;SDS011;7205;50.864;12.766;2024-03-23T02:27:53;28.87;;;20.40;;
14241;SDS011;7205;50.864;12.766;2024-03-23T02:30:19;29.33;;;19.80;;
14241;SDS011;7205;50.864;12.766;2024-03-23T02:32:45;30.10;;;21.63;;
14241;SDS011;7205;50.864;12.766;2024-03-23T02:35:11;35.43;;;22.73;;
14241;SDS011;7205;50.864;12.766;2024-03-23T02:37:38;32.40;;;22.77;;
14241;SDS011;7205;50.864;12.766;2024-03-23T02:40:05;33.60;;;22.73;;
14241;SDS011;7205;50.864;12.766;2024-03-23T02:42:33;29.03;;;21.00;;
14241;SDS011;7205;50.864;12.766;2024-03-23T02:44:58;32.80;;;22.37;;
14241;SDS011;7205;50.864;12.766;2024-03-23T02:47:25;32.13;;;22.30;;
14241;SDS011;7205;50.864;12.766;2024-03-23T02:49:51;34.07;;;24.20;;
14241;SDS011;7205;50.864;12.766;2024-03-23T02:52:17;44.03;;;25.07;;
14241;SDS011;7205;50.864;12.766;2024-03-23T02:54:43;38.13;;;25.77;;
14241;SDS011;7205;50.864;12.766;2024-03-23T02:57:11;44.43;;;25.53;;
14241;SDS011;7205;50.864;12.766;2024-03-23T02:59:37;40.07;;;25.03;;
14241;SDS011;7205;50.864;12.766;2024-03-23T03:02:04;42.53;;;25.50;;
14241;SDS011;7205;50.864;12.766;2024-03-23T03:04:30;43.00;;;26.40;;
14241;SDS011;7205;50.864;12.766;2024-03-23T03:06:57;44.77;;;25.37;;
14241;SDS011;7205;50.864;12.766;2024-03-23T03:09:23;38.67;;;25.73;;
14241;SDS011;7205;50.864;12.766;2024-03-23T03:11:50;39.13;;;25.50;;
14241;SDS011;7205;50.864;12.766;2024-03-23T03:14:17;41.67;;;26.03;;
14241;SDS011;7205;50.864;12.766;2024-03-23T03:16:43;42.13;;;26.17;;
14241;SDS011;7205;50.864;12.766;2024-03-23T03:19:09;49.07;;;27.43;;
14241;SDS011;7205;50.864;12.766;2024-03-23T03:21:36;44.40;;;26.30;;
14241;SDS011;7205;50.864;12.766;2024-03-23T03:24:02;38.10;;;24.90;;
14241;SDS011;7205;50.864;12.766;2024-03-23T03:26:30;42.90;;;26.00;;
14241;SDS011;7205;50.864;12.766;2024-03-23T03:28:56;45.63;;;25.13;;
14241;SDS011;7205;50.864;12.766;2024-03-23T03:31:24;40.73;;;24.40;;
14241;SDS011;7205;50.864;12.766;2024-03-23T03:33:50;42.57;;;24.40;;
14241;SDS011;7205;50.864;12.766;2024-03-23T03:36:16;82.00;;;28.17;;
14241;SDS011;7205;50.864;12.766;2024-03-23T03:38:42;43.53;;;25.50;;
14241;SDS011;7205;50.864;12.766;2024-03-23T03:41:09;59.47;;;25.53;;
14241;SDS011;7205;50.864;12.766;2024-03-23T03:43:34;72.30;;;25.33;;
14241;SDS011;7205;50.864;12.766;2024-03-23T03:46:01;42.40;;;23.40;;
14241;SDS011;7205;50.864;12.766;2024-03-23T03:48:29;50.17;;;24.13;;
14241;SDS011;7205;50.864;12.766;2024-03-23T03:50:56;43.30;;;24.33;;
14241;SDS011;7205;50.864;12.766;2024-03-23T03:53:21;50.07;;;25.93;;
14241;SDS011;7205;50.864;12.766;2024-03-23T03:55:48;52.63;;;24.53;;
14241;SDS011;7205;50.864;12.766;2024-03-23T03:58:14;87.30;;;25.47;;
14241;SDS011;7205;50.864;12.766;2024-03-23T04:00:40;69.27;;;24.33;;
14241;SDS011;7205;50.864;12.766;2024-03-23T04:03:06;110.40;;;26.10;;
14241;SDS011;7205;50.864;12.766;2024-03-23T04:05:34;86.73;;;23.10;;
14241;SDS011;7205;50.864;12.766;2024-03-23T04:08:00;54.33;;;22.60;;
14241;SDS011;7205;50.864;12.766;2024-03-23T04:10:26;62.87;;;24.47;;
14241;SDS011;7205;50.864;12.766;2024-03-23T04:12:52;162.77;;;26.90;;
14241;SDS011;7205;50.864;12.766;2024-03-23T04:15:19;214.10;;;28.80;;
14241;SDS011;7205;50.864;12.766;2024-03-23T04:17:44;100.63;;;24.87;;
14241;SDS011;7205;50.864;12.766;2024-03-23T04:20:11;194.40;;;26.67;;
14241;SDS011;7205;50.864;12.766;2024-03-23T04:22:40;143.17;;;26.47;;
14241;SDS011;7205;50.864;12.766;2024-03-23T04:25:07;199.30;;;27.83;;
14241;SDS011;7205;50.864;12.766;2024-03-23T04:27:32;183.67;;;24.33;;
14241;SDS011;7205;50.864;12.766;2024-03-23T04:29:59;179.13;;;24.07;;
14241;SDS011;7205;50.864;12.766;2024-03-23T04:32:26;193.10;;;25.33;;
14241;SDS011;7205;50.864;12.766;2024-03-23T04:34:53;136.00;;;24.23;;
14241;SDS011;7205;50.864;12.766;2024-03-23T04:37:19;196.93;;;25.07;;
14241;SDS011;7205;50.864;12.766;2024-03-23T04:39:47;143.17;;;24.47;;
14241;SDS011;7205;50.864;12.766;2024-03-23T04:42:14;475.93;;;40.43;;
14241;SDS011;7205;50.864;12.766;2024-03-23T04:44:41;113.73;;;25.37;;
14241;SDS011;7205;50.864;12.766;2024-03-23T04:47:08;70.07;;;21.03;;
14241;SDS011;7205;50.864;12.766;2024-03-23T04:49:38;93.83;;;21.73;;
14241;SDS011;7205;50.864;12.766;2024-03-23T04:52:04;76.50;;;20.03;;
14241;SDS011;7205;50.864;12.766;2024-03-23T04:54:32;54.90;;;19.67;;
14241;SDS011;7205;50.864;12.766;2024-03-23T04:57:00;77.30;;;20.80;;
14241;SDS011;7205;50.864;12.766;2024-03-23T04:59:25;43.90;;;19.83;;
14241;SDS011;7205;50.864;12.766;2024-03-23T05:01:52;91.97;;;21.13;;
14241;SDS011;7205;50.864;12.766;2024-03-23T05:04:18;53.60;;;20.47;;
14241;SDS011;7205;50.864;12.766;2024-03-23T05:06:44;49.53;;;19.87;;
14241;SDS011;7205;50.864;12.766;2024-03-23T05:09:10;78.50;;;21.57;;
14241;SDS011;7205;50.864;12.766;2024-03-23T05:11:38;48.73;;;20.37;;
14241;SDS011;7205;50.864;12.766;2024-03-23T05:14:05;42.13;;;20.23;;
14241;SDS011;7205;50.864;12.766;2024-03-23T05:16:32;95.00;;;21.00;;
14241;SDS011;7205;50.864;12.766;2024-03-23T05:18:57;78.93;;;20.13;;
14241;SDS011;7205;50.864;12.766;2024-03-23T05:21:24;45.63;;;21.33;;
14241;SDS011;7205;50.864;12.766;2024-03-23T05:23:50;54.23;;;20.47;;
14241;SDS011;7205;50.864;12.766;2024-03-23T05:26:17;87.63;;;23.57;;
14241;SDS011;7205;50.864;12.766;2024-03-23T05:28:43;36.77;;;19.80;;
14241;SDS011;7205;50.864;12.766;2024-03-23T05:31:11;27.93;;;18.93;;
14241;SDS011;7205;50.864;12.766;2024-03-23T05:33:37;26.73;;;18.23;;
14241;SDS011;7205;50.864;12.766;2024-03-23T05:36:05;23.87;;;18.10;;
14241;SDS011;7205;50.864;12.766;2024-03-23T05:38:31;26.30;;;19.27;;
14241;SDS011;7205;50.864;12.766;2024-03-23T05:40:58;21.37;;;17.43;;
14241;SDS011;7205;50.864;12.766;2024-03-23T05:43:25;25.10;;;18.47;;
14241;SDS011;7205;50.864;12.766;2024-03-23T05:45:53;23.23;;;18.13;;
14241;SDS011;7205;50.864;12.766;2024-03-23T05:48:21;21.50;;;16.83;;
14241;SDS011;7205;50.864;12.766;2024-03-23T05:50:48;20.93;;;15.83;;
14241;SDS011;7205;50.864;12.766;2024-03-23T05:53:14;19.57;;;15.80;;
14241;SDS011;7205;50.864;12.766;2024-03-23T05:55:41;19.87;;;16.03;;
14241;SDS011;7205;50.864;12.766;2024-03-23T05:58:06;19.17;;;15.33;;
14241;SDS011;7205;50.864;12.766;2024-03-23T06:00:33;18.43;;;15.27;;
14241;SDS011;7205;50.864;12.766;2024-03-23T06:02:59;17.60;;;15.30;;
14241;SDS011;7205;50.864;12.766;2024-03-23T06:05:27;17.77;;;15.00;;
14241;SDS011;7205;50.864;12.766;2024-03-23T06:07:52;18.70;;;15.43;;
14241;SDS011;7205;50.864;12.766;2024-03-23T06:10:19;16.10;;;14.40;;
14241;SDS011;7205;50.864;12.766;2024-03-23T06:12:45;15.93;;;14.10;;
14241;SDS011;7205;50.864;12.766;2024-03-23T06:15:12;16.83;;;14.23;;
14241;SDS011;7205;50.864;12.766;2024-03-23T06:17:37;16.50;;;13.57;;
14241;SDS011;7205;50.864;12.766;2024-03-23T06:20:05;15.87;;;13.97;;
14241;SDS011;7205;50.864;12.766;2024-03-23T06:22:32;17.30;;;13.53;;
14241;SDS011;7205;50.864;12.766;2024-03-23T06:24:59;14.83;;;13.23;;
14241;SDS011;7205;50.864;12.766;2024-03-23T06:27:25;17.50;;;14.37;;
14241;SDS011;7205;50.864;12.766;2024-03-23T06:29:51;18.83;;;14.10;;
14241;SDS011;7205;50.864;12.766;2024-03-23T06:32:17;16.23;;;14.13;;
14241;SDS011;7205;50.864;12.766;2024-03-23T06:34:44;18.30;;;15.13;;
14241;SDS011;7205;50.864;12.766;2024-03-23T06:37:10;17.17;;;15.00;;
14241;SDS011;7205;50.864;12.766;2024-03-23T06:39:38;27.20;;;18.23;;
14241;SDS011;7205;50.864;12.766;2024-03-23T06:42:04;21.60;;;14.77;;
14241;SDS011;7205;50.864;12.766;2024-03-23T06:44:31;16.17;;;14.47;;
14241;SDS011;7205;50.864;12.766;2024-03-23T06:46:57;16.00;;;14.17;;
14241;SDS011;7205;50.864;12.766;2024-03-23T06:49:24;14.27;;;12.73;;
14241;SDS011;7205;50.864;12.766;2024-03-23T06:51:49;15.17;;;12.67;;
14241;SDS011;7205;50.864;12.766;2024-03-23T06:54:16;14.57;;;11.83;;
14241;SDS011;7205;50.864;12.766;2024-03-23T06:56:43;13.57;;;12.03;;
14241;SDS011;7205;50.864;12.766;2024-03-23T06:59:10;13.30;;;12.00;;
14241;SDS011;7205;50.864;12.766;2024-03-23T07:01:36;13.33;;;12.03;;
14241;SDS011;7205;50.864;12.766;2024-03-23T07:04:02;13.97;;;12.57;;
14241;SDS011;7205;50.864;12.766;2024-03-23T07:06:30;13.83;;;12.43;;
14241;SDS011;7205;50.864;12.766;2024-03-23T07:08:57;14.47;;;12.43;;
14241;SDS011;7205;50.864;12.766;2024-03-23T07:11:22;13.30;;;12.03;;
14241;SDS011;7205;50.864;12.766;2024-03-23T07:13:58;13.63;;;12.33;;
14241;SDS011;7205;50.864;12.766;2024-03-23T07:16:26;12.47;;;11.27;;
14241;SDS011;7205;50.864;12.766;2024-03-23T07:18:52;12.53;;;10.77;;
14241;SDS011;7205;50.864;12.766;2024-03-23T07:21:18;13.00;;;11.70;;
14241;SDS011;7205;50.864;12.766;2024-03-23T07:23:44;13.50;;;12.10;;
14241;SDS011;7205;50.864;12.766;2024-03-23T07:26:11;13.47;;;12.17;;
14241;SDS011;7205;50.864;12.766;2024-03-23T07:28:36;13.90;;;12.40;;
14241;SDS011;7205;50.864;12.766;2024-03-23T07:31:09;12.87;;;11.63;;
14241;SDS011;7205;50.864;12.766;2024-03-23T07:33:36;14.37;;;12.97;;
14241;SDS011;7205;50.864;12.766;2024-03-23T07:36:04;10.10;;;9.00;;
14241;SDS011;7205;50.864;12.766;2024-03-23T07:38:31;8.10;;;7.30;;
14241;SDS011;7205;50.864;12.766;2024-03-23T07:41:04;7.93;;;7.23;;
14241;SDS011;7205;50.864;12.766;2024-03-23T07:43:30;9.23;;;8.43;;
14241;SDS011;7205;50.864;12.766;2024-03-23T07:45:57;7.13;;;6.53;;
14241;SDS011;7205;50.864;12.766;2024-03-23T07:48:24;5.90;;;5.37;;
14241;SDS011;7205;50.864;12.766;2024-03-23T07:51:05;6.73;;;6.17;;
14241;SDS011;7205;50.864;12.766;2024-03-23T07:53:34;6.37;;;5.60;;
14241;SDS011;7205;50.864;12.766;2024-03-23T07:56:02;6.23;;;5.63;;
14241;SDS011;7205;50.864;12.766;2024-03-23T07:58:30;6.67;;;6.07;;
14241;SDS011;7205;50.864;12.766;2024-03-23T08:01:03;6.97;;;6.03;;
14241;SDS011;7205;50.864;12.766;2024-03-23T08:03:30;6.07;;;5.60;;
14241;SDS011;7205;50.864;12.766;2024-03-23T08:05:57;6.77;;;6.17;;
14241;SDS011;7205;50.864;12.766;2024-03-23T08:08:23;6.37;;;5.87;;
14241;SDS011;7205;50.864;12.766;2024-03-23T08:10:50;6.47;;;5.97;;
14241;SDS011;7205;50.864;12.766;2024-03-23T08:13:16;6.60;;;6.10;;
14241;SDS011;7205;50.864;12.766;2024-03-23T08:15:43;7.03;;;6.53;;
14241;SDS011;7205;50.864;12.766;2024-03-23T08:18:10;7.83;;;6.33;;
14241;SDS011;7205;50.864;12.766;2024-03-23T08:20:38;7.50;;;6.90;;
14241;SDS011;7205;50.864;12.766;2024-03-23T08:23:05;7.60;;;7.00;;
14241;SDS011;7205;50.864;12.766;2024-03-23T08:25:31;8.80;;;8.00;;
14241;SDS011;7205;50.864;12.766;2024-03-23T08:27:58;7.57;;;6.97;;
14241;SDS011;7205;50.864;12.766;2024-03-23T08:30:24;7.30;;;6.70;;
14241;SDS011;7205;50.864;12.766;2024-03-23T08:32:51;8.07;;;7.37;;
14241;SDS011;7205;50.864;12.766;2024-03-23T08:35:17;9.43;;;7.73;;
14241;SDS011;7205;50.864;12.766;2024-03-23T08:37:48;8.07;;;7.47;;
14241;SDS011;7205;50.864;12.766;2024-03-23T08:40:22;8.80;;;7.93;;
14241;SDS011;7205;50.864;12.766;2024-03-23T08:42:49;8.60;;;7.57;;
14241;SDS011;7205;50.864;12.766;2024-03-23T08:45:15;10.30;;;9.30;;
14241;SDS011;7205;50.864;12.766;2024-03-23T08:47:42;16.43;;;10.73;;
14241;SDS011;7205;50.864;12.766;2024-03-23T08:50:08;15.57;;;8.30;;
14241;SDS011;7205;50.864;12.766;2024-03-23T08:52:36;12.60;;;5.23;;
14241;SDS011;7205;50.864;12.766;2024-03-23T08:55:03;10.23;;;4.43;;
14241;SDS011;7205;50.864;12.766;2024-03-23T08:57:31;2.50;;;1.70;;
14241;SDS011;7205;50.864;12.766;2024-03-23T08:59:58;1.57;;;1.47;;
14241;SDS011;7205;50.864;12.766;2024-03-23T09:02:25;1.47;;;1.37;;
14241;SDS011;7205;50.864;12.766;2024-03-23T09:04:50;0.83;;;0.83;;
14241;SDS011;7205;50.864;12.766;2024-03-23T09:07:20;0.73;;;0.70;;
14241;SDS011;7205;50.864;12.766;2024-03-23T09:09:46;0.77;;;0.60;;
14241;SDS011;7205;50.864;12.766;2024-03-23T09:12:14;0.90;;;0.70;;
14241;SDS011;7205;50.864;12.766;2024-03-23T09:14:39;0.80;;;0.80;;
14241;SDS011;7205;50.864;12.766;2024-03-23T09:17:06;1.03;;;0.80;;
14241;SDS011;7205;50.864;12.766;2024-03-23T09:19:32;0.53;;;0.50;;
14241;SDS011;7205;50.864;12.766;2024-03-23T09:21:58;0.40;;;0.40;;
14241;SDS011;7205;50.864;12.766;2024-03-23T09:24:24;1.73;;;0.43;;
14241;SDS011;7205;50.864;12.766;2024-03-23T09:26:51;0.87;;;0.47;;
14241;SDS011;7205;50.864;12.766;2024-03-23T09:29:18;0.20;;;0.20;;
14241;SDS011;7205;50.864;12.766;2024-03-23T09:31:45;0.20;;;0.20;;
14241;SDS011;7205;50.864;12.766;2024-03-23T09:34:11;0.30;;;0.30;;
14241;SDS011;7205;50.864;12.766;2024-03-23T09:36:38;0.90;;;0.20;;
14241;SDS011;7205;50.864;12.766;2024-03-23T09:39:03;0.87;;;0.30;;
14241;SDS011;7205;50.864;12.766;2024-03-23T09:41:30;0.30;;;0.30;;
14241;SDS011;7205;50.864;12.766;2024-03-23T09:43:56;0.90;;;0.37;;
14241;SDS011;7205;50.864;12.766;2024-03-23T09:46:24;0.53;;;0.40;;
14241;SDS011;7205;50.864;12.766;2024-03-23T09:48:50;0.40;;;0.30;;
14241;SDS011;7205;50.864;12.766;2024-03-23T09:51:17;0.40;;;0.37;;
14241;SDS011;7205;50.864;12.766;2024-03-23T09:53:42;0.73;;;0.23;;
14241;SDS011;7205;50.864;12.766;2024-03-23T09:56:09;1.93;;;0.90;;
14241;SDS011;7205;50.864;12.766;2024-03-23T09:58:35;0.50;;;0.20;;
14241;SDS011;7205;50.864;12.766;2024-03-23T10:01:02;0.20;;;0.20;;
14241;SDS011;7205;50.864;12.766;2024-03-23T10:03:32;0.83;;;0.83;;
14241;SDS011;7205;50.864;12.766;2024-03-23T10:06:14;0.97;;;0.50;;
14241;SDS011;7205;50.864;12.766;2024-03-23T10:08:46;0.87;;;0.60;;
14241;SDS011;7205;50.864;12.766;2024-03-23T10:11:22;0.30;;;0.30;;
14241;SDS011;7205;50.864;12.766;2024-03-23T10:13:50;0.40;;;0.40;;
14241;SDS011;7205;50.864;12.766;2024-03-23T10:16:21;1.10;;;0.97;;
14241;SDS011;7205;50.864;12.766;2024-03-23T10:18:49;1.30;;;1.20;;
14241;SDS011;7205;50.864;12.766;2024-03-23T10:21:16;1.87;;;1.43;;
14241;SDS011;7205;50.864;12.766;2024-03-23T10:23:48;2.70;;;2.60;;
14241;SDS011;7205;50.864;12.766;2024-03-23T10:26:17;2.87;;;2.03;;
14241;SDS011;7205;50.864;12.766;2024-03-23T10:28:51;3.63;;;2.53;;
14241;SDS011;7205;50.864;12.766;2024-03-23T10:31:19;2.83;;;1.77;;
14241;SDS011;7205;50.864;12.766;2024-03-23T10:33:45;1.20;;;1.20;;
14241;SDS011;7205;50.864;12.766;2024-03-23T10:36:14;1.20;;;1.20;;
14241;SDS011;7205;50.864;12.766;2024-03-23T10:38:40;1.17;;;1.07;;
14241;SDS011;7205;50.864;12.766;2024-03-23T10:41:08;0.77;;;0.77;;
14241;SDS011;7205;50.864;12.766;2024-03-23T10:43:38;1.50;;;1.40;;
14241;SDS011;7205;50.864;12.766;2024-03-23T10:46:05;0.60;;;0.60;;
14241;SDS011;7205;50.864;12.766;2024-03-23T10:48:32;1.10;;;1.10;;
14241;SDS011;7205;50.864;12.766;2024-03-23T10:50:59;1.10;;;1.00;;
14241;SDS011;7205;50.864;12.766;2024-03-23T10:53:27;1.13;;;1.03;;
14241;SDS011;7205;50.864;12.766;2024-03-23T10:55:54;0.80;;;0.80;;
14241;SDS011;7205;50.864;12.766;2024-03-23T10:58:21;1.03;;;0.90;;
14241;SDS011;7205;50.864;12.766;2024-03-23T11:00:52;0.70;;;0.70;;
14241;SDS011;7205;50.864;12.766;2024-03-23T11:06:02;0.70;;;0.70;;
14241;SDS011;7205;50.864;12.766;2024-03-23T11:08:39;1.47;;;0.90;;
14241;SDS011;7205;50.864;12.766;2024-03-23T11:11:14;0.60;;;0.60;;
14241;SDS011;7205;50.864;12.766;2024-03-23T11:13:42;0.50;;;0.50;;
14241;SDS011;7205;50.864;12.766;2024-03-23T11:16:15;0.60;;;0.60;;
14241;SDS011;7205;50.864;12.766;2024-03-23T11:18:42;0.53;;;0.53;;
14241;SDS011;7205;50.864;12.766;2024-03-23T11:21:09;0.40;;;0.40;;
14241;SDS011;7205;50.864;12.766;2024-03-23T11:23:35;0.60;;;0.60;;
14241;SDS011;7205;50.864;12.766;2024-03-23T11:26:17;0.80;;;0.80;;
14241;SDS011;7205;50.864;12.766;2024-03-23T11:29:26;0.70;;;0.70;;
14241;SDS011;7205;50.864;12.766;2024-03-23T11:32:07;0.90;;;0.90;;
14241;SDS011;7205;50.864;12.766;2024-03-23T11:34:59;0.80;;;0.80;;
14241;SDS011;7205;50.864;12.766;2024-03-23T11:37:59;0.80;;;0.80;;
14241;SDS011;7205;50.864;12.766;2024-03-23T11:51:26;0.67;;;0.67;;
14241;SDS011;7205;50.864;12.766;2024-03-23T11:55:05;0.60;;;0.60;;
14241;SDS011;7205;50.864;12.766;2024-03-23T11:57:33;0.70;;;0.70;;
14241;SDS011;7205;50.864;12.766;2024-03-23T11:59:59;0.60;;;0.60;;
14241;SDS011;7205;50.864;12.766;2024-03-23T12:02:26;1.10;;;1.00;;
14241;SDS011;7205;50.864;12.766;2024-03-23T12:04:52;0.60;;;0.60;;
14241;SDS011;7205;50.864;12.766;2024-03-23T12:07:21;1.03;;;0.27;;
14241;SDS011;7205;50.864;12.766;2024-03-23T12:09:47;0.40;;;0.40;;
14241;SDS011;7205;50.864;12.766;2024-03-23T12:12:28;0.23;;;0.23;;
14241;SDS011;7205;50.864;12.766;2024-03-23T12:15:01;0.40;;;0.40;;
14241;SDS011;7205;50.864;12.766;2024-03-23T12:17:28;0.60;;;0.60;;
14241;SDS011;7205;50.864;12.766;2024-03-23T12:19:54;0.43;;;0.43;;
14241;SDS011;7205;50.864;12.766;2024-03-23T12:22:23;0.70;;;0.70;;
14241;SDS011;7205;50.864;12.766;2024-03-23T12:24:49;0.40;;;0.40;;
14241;SDS011;7205;50.864;12.766;2024-03-23T12:27:24;0.57;;;0.57;;
14241;SDS011;7205;50.864;12.766;2024-03-23T12:30:43;0.40;;;0.40;;
14241;SDS011;7205;50.864;12.766;2024-03-23T12:44:32;0.70;;;0.70;;
14241;SDS011;7205;50.864;12.766;2024-03-23T12:47:22;0.70;;;0.70;;
14241;SDS011;7205;50.864;12.766;2024-03-23T12:49:56;19.30;;;1.00;;
14241;SDS011;7205;50.864;12.766;2024-03-23T12:52:46;1.13;;;1.03;;
14241;SDS011;7205;50.864;12.766;2024-03-23T12:55:11;1.47;;;1.00;;
14241;SDS011;7205;50.864;12.766;2024-03-23T12:57:41;2.30;;;1.00;;
14241;SDS011;7205;50.864;12.766;2024-03-23T13:03:07;1.57;;;1.27;;
14241;SDS011;7205;50.864;12.766;2024-03-23T13:05:54;1.30;;;1.20;;
14241;SDS011;7205;50.864;12.766;2024-03-23T13:08:33;1.90;;;1.37;;
14241;SDS011;7205;50.864;12.766;2024-03-23T13:11:13;2.80;;;1.10;;
14241;SDS011;7205;50.864;12.766;2024-03-23T13:24:31;2.00;;;1.30;;
14241;SDS011;7205;50.864;12.766;2024-03-23T13:27:00;2.63;;;1.53;;
14241;SDS011;7205;50.864;12.766;2024-03-23T13:29:29;7.07;;;1.80;;
14241;SDS011;7205;50.864;12.766;2024-03-23T13:31:55;3.10;;;1.80;;
14241;SDS011;7205;50.864;12.766;2024-03-23T13:34:22;4.07;;;1.67;;
14241;SDS011;7205;50.864;12.766;2024-03-23T13:36:49;4.07;;;1.87;;
14241;SDS011;7205;50.864;12.766;2024-03-23T13:39:16;4.23;;;1.87;;
14241;SDS011;7205;50.864;12.766;2024-03-23T13:41:43;3.60;;;1.70;;
14241;SDS011;7205;50.864;12.766;2024-03-23T13:44:11;2.53;;;1.67;;
14241;SDS011;7205;50.864;12.766;2024-03-23T13:46:37;5.33;;;2.37;;
14241;SDS011;7205;50.864;12.766;2024-03-23T13:49:04;4.53;;;2.03;;
14241;SDS011;7205;50.864;12.766;2024-03-23T13:51:30;6.47;;;2.40;;
14241;SDS011;7205;50.864;12.766;2024-03-23T13:53:58;3.13;;;1.80;;
14241;SDS011;7205;50.864;12.766;2024-03-23T13:56:37;3.67;;;2.03;;
14241;SDS011;7205;50.864;12.766;2024-03-23T13:59:21;3.17;;;1.73;;
14241;SDS011;7205;50.864;12.766;2024-03-23T14:02:29;4.07;;;2.13;;
14241;SDS011;7205;50.864;12.766;2024-03-23T14:05:20;2.30;;;2.10;;
14241;SDS011;7205;50.864;12.766;2024-03-23T14:07:49;2.73;;;1.80;;
14241;SDS011;7205;50.864;12.766;2024-03-23T14:10:21;4.50;;;2.20;;
14241;SDS011;7205;50.864;12.766;2024-03-23T14:12:53;4.87;;;2.33;;
14241;SDS011;7205;50.864;12.766;2024-03-23T14:15:25;5.43;;;2.30;;
14241;SDS011;7205;50.864;12.766;2024-03-23T14:17:55;4.57;;;2.03;;
14241;SDS011;7205;50.864;12.766;2024-03-23T14:20:28;5.50;;;2.70;;
14241;SDS011;7205;50.864;12.766;2024-03-23T14:22:53;2.47;;;2.30;;
14241;SDS011;7205;50.864;12.766;2024-03-23T14:25:22;5.80;;;2.07;;
14241;SDS011;7205;50.864;12.766;2024-03-23T14:27:54;2.00;;;1.73;;
14241;SDS011;7205;50.864;12.766;2024-03-23T14:30:28;2.67;;;2.17;;
14241;SDS011;7205;50.864;12.766;2024-03-23T14:32:53;2.87;;;2.27;;
14241;SDS011;7205;50.864;12.766;2024-03-23T14:35:20;4.20;;;2.10;;
14241;SDS011;7205;50.864;12.766;2024-03-23T14:37:46;3.93;;;2.13;;
14241;SDS011;7205;50.864;12.766;2024-03-23T14:40:13;4.10;;;2.37;;
14241;SDS011;7205;50.864;12.766;2024-03-23T14:42:40;3.50;;;2.30;;
14241;SDS011;7205;50.864;12.766;2024-03-23T14:45:07;2.27;;;2.07;;
14241;SDS011;7205;50.864;12.766;2024-03-23T14:47:33;2.47;;;2.27;;
14241;SDS011;7205;50.864;12.766;2024-03-23T14:50:00;3.07;;;2.17;;
14241;SDS011;7205;50.864;12.766;2024-03-23T14:52:26;1.80;;;1.70;;
14241;SDS011;7205;50.864;12.766;2024-03-23T14:54:52;3.30;;;1.90;;
14241;SDS011;7205;50.864;12.766;2024-03-23T14:57:18;3.77;;;1.77;;
14241;SDS011;7205;50.864;12.766;2024-03-23T14:59:46;4.73;;;2.10;;
14241;SDS011;7205;50.864;12.766;2024-03-23T15:02:12;2.93;;;1.77;;
14241;SDS011;7205;50.864;12.766;2024-03-23T15:04:39;1.67;;;1.50;;
14241;SDS011;7205;50.864;12.766;2024-03-23T15:07:07;3.73;;;1.97;;
14241;SDS011;7205;50.864;12.766;2024-03-23T15:09:33;1.60;;;1.50;;
14241;SDS011;7205;50.864;12.766;2024-03-23T15:11:59;2.60;;;1.87;;
14241;SDS011;7205;50.864;12.766;2024-03-23T15:14:26;2.00;;;1.80;;
14241;SDS011;7205;50.864;12.766;2024-03-23T15:16:53;2.83;;;1.53;;
14241;SDS011;7205;50.864;12.766;2024-03-23T15:19:19;1.50;;;1.33;;
14241;SDS011;7205;50.864;12.766;2024-03-23T15:21:45;1.57;;;1.47;;
14241;SDS011;7205;50.864;12.766;2024-03-23T15:24:12;2.40;;;1.67;;
14241;SDS011;7205;50.864;12.766;2024-03-23T15:26:37;4.03;;;1.43;;
14241;SDS011;7205;50.864;12.766;2024-03-23T15:29:05;2.87;;;1.90;;
14241;SDS011;7205;50.864;12.766;2024-03-23T15:31:41;2.30;;;1.37;;
14241;SDS011;7205;50.864;12.766;2024-03-23T15:34:10;3.50;;;1.53;;
14241;SDS011;7205;50.864;12.766;2024-03-23T15:36:36;2.60;;;1.73;;
14241;SDS011;7205;50.864;12.766;2024-03-23T15:39:04;1.40;;;1.30;;
14241;SDS011;7205;50.864;12.766;2024-03-23T15:41:29;3.47;;;1.67;;
14241;SDS011;7205;50.864;12.766;2024-03-23T15:44:03;2.73;;;1.50;;
14241;SDS011;7205;50.864;12.766;2024-03-23T15:46:29;1.70;;;1.20;;
14241;SDS011;7205;50.864;12.766;2024-03-23T15:49:14;2.80;;;1.80;;
14241;SDS011;7205;50.864;12.766;2024-03-23T15:51:40;2.07;;;1.60;;
14241;SDS011;7205;50.864;12.766;2024-03-23T15:54:09;4.27;;;1.67;;
14241;SDS011;7205;50.864;12.766;2024-03-23T15:56:35;2.90;;;1.67;;
14241;SDS011;7205;50.864;12.766;2024-03-23T15:59:02;3.83;;;1.70;;
14241;SDS011;7205;50.864;12.766;2024-03-23T16:01:30;2.77;;;1.97;;
14241;SDS011;7205;50.864;12.766;2024-03-23T16:03:58;4.97;;;2.20;;
14241;SDS011;7205;50.864;12.766;2024-03-23T16:06:26;3.70;;;2.27;;
14241;SDS011;7205;50.864;12.766;2024-03-23T16:08:53;3.50;;;2.67;;
14241;SDS011;7205;50.864;12.766;2024-03-23T16:11:19;3.47;;;2.60;;
14241;SDS011;7205;50.864;12.766;2024-03-23T16:13:46;2.47;;;2.27;;
14241;SDS011;7205;50.864;12.766;2024-03-23T16:16:11;2.40;;;1.90;;
14241;SDS011;7205;50.864;12.766;2024-03-23T16:18:39;2.30;;;2.03;;